PWSweather.com
Personal Weather Stations
Station Observations
MART18
Seleziona Stato..., MartinsicuroIT italia

Seleziona Stato...MartinsicuroIT italia

Lat: 42.885169, Lon: 13.918447300000025

Elevation: 3

Station Type: Davis vantage vp2

Latest ConditionsUpdated 9:14:09 AM GMT+01:01 Monday, Nov 19, 2018
Currently Today's Max Today's Min Today's Average
Temperature 47.1°F8.4°C 47.7°F8.7°C 44.8°F7.1°C 45.8°F7.7°C
Dew Point 38.1°F3.4°C 38.3°F3.5°C 36.3°F2.4°C 37.0°F2.8°C
Winds 0.9 mph NNW1.4 kmh NNW 8.1 mph -13.0 kmh - - 3.7 mph 6.0 kmh
Wind Gusts 4.0 mph6.4 kmh 15.0 mph24.1 kmh - -
Humidity 71% 74% 68% 71%
Pressure 29.79 in1008.8 mb 29.84 in1010.5 mb 29.79 in1008.8 mb -
Hour Temp Dew Point Humidity Winds Wind Gusts Pressure Precip Precip Rate Daily Precip Total
09:14 AM 47.1°F8.4°C 38.1°F3.4°C 71% 0.9 mph NNW1.4 kmh NNW 4.0 mph6.4 kmh 29.79 in1008.8 mb 0.00 in0.0 mm 0.00 in0.0 mm 0.00 in0.0 mm
09:09 AM 47.3°F8.5°C 38.3°F3.5°C 71% Calm Calm 2.0 mph3.2 kmh 29.79 in1008.8 mb 0.00 in0.0 mm 0.00 in0.0 mm 0.00 in0.0 mm
09:04 AM 47.5°F8.6°C 38.1°F3.4°C 70% Calm Calm 2.9 mph4.7 kmh 29.79 in1008.8 mb 0.00 in0.0 mm 0.00 in0.0 mm 0.00 in0.0 mm
08:59 AM 47.7°F8.7°C 37.9°F3.3°C 69% Calm Calm 2.9 mph4.7 kmh 29.79 in1008.8 mb 0.00 in0.0 mm 0.00 in0.0 mm 0.00 in0.0 mm
08:54 AM 47.7°F8.7°C 37.9°F3.3°C 69% Calm Calm 0.9 mph1.4 kmh 29.79 in1008.8 mb 0.00 in0.0 mm 0.00 in0.0 mm 0.00 in0.0 mm
08:49 AM 47.5°F8.6°C 37.4°F3.0°C 68% Calm Calm 2.0 mph3.2 kmh 29.79 in1008.8 mb 0.00 in0.0 mm 0.00 in0.0 mm 0.00 in0.0 mm
08:44 AM 47.1°F8.4°C 37.0°F2.8°C 68% Calm Calm 2.0 mph3.2 kmh 29.79 in1008.8 mb 0.00 in0.0 mm 0.00 in0.0 mm 0.00 in0.0 mm
08:39 AM 46.9°F8.3°C 36.9°F2.7°C 68% Calm Calm 2.9 mph4.7 kmh 29.80 in1009.1 mb 0.00 in0.0 mm 0.00 in0.0 mm 0.00 in0.0 mm
08:34 AM 46.9°F8.3°C 36.9°F2.7°C 68% 0.9 mph W1.4 kmh W 4.0 mph6.4 kmh 29.80 in1009.1 mb 0.00 in0.0 mm 0.00 in0.0 mm 0.00 in0.0 mm
08:29 AM 46.8°F8.2°C 37.2°F2.9°C 69% 2.0 mph W3.2 kmh W 4.0 mph6.4 kmh 29.80 in1009.1 mb 0.00 in0.0 mm 0.00 in0.0 mm 0.00 in0.0 mm
08:24 AM 46.6°F8.1°C 37.0°F2.8°C 69% 2.0 mph W3.2 kmh W 4.9 mph7.9 kmh 29.80 in1009.1 mb 0.00 in0.0 mm 0.00 in0.0 mm 0.00 in0.0 mm
08:19 AM 46.4°F8.0°C 36.9°F2.7°C 69% 0.9 mph WSW1.4 kmh WSW 7.0 mph11.3 kmh 29.80 in1009.1 mb 0.00 in0.0 mm 0.00 in0.0 mm 0.00 in0.0 mm
08:14 AM 46.2°F7.9°C 36.7°F2.6°C 69% 2.0 mph WSW3.2 kmh WSW 4.9 mph7.9 kmh 29.80 in1009.1 mb 0.00 in0.0 mm 0.00 in0.0 mm 0.00 in0.0 mm
08:09 AM 46.2°F7.9°C 36.7°F2.6°C 69% 2.0 mph W3.2 kmh W 6.9 mph11.1 kmh 29.80 in1009.1 mb 0.00 in0.0 mm 0.00 in0.0 mm 0.00 in0.0 mm
08:04 AM 46.0°F7.8°C 36.5°F2.5°C 69% 0.9 mph WSW1.4 kmh WSW 2.9 mph4.7 kmh 29.80 in1009.1 mb 0.00 in0.0 mm 0.00 in0.0 mm 0.00 in0.0 mm
07:59 AM 46.0°F7.8°C 36.5°F2.5°C 69% 2.0 mph WNW3.2 kmh WNW 4.0 mph6.4 kmh 29.80 in1009.1 mb 0.00 in0.0 mm 0.00 in0.0 mm 0.00 in0.0 mm
07:54 AM 46.0°F7.8°C 36.5°F2.5°C 69% 2.0 mph NW3.2 kmh NW 6.0 mph9.7 kmh 29.80 in1009.1 mb 0.00 in0.0 mm 0.00 in0.0 mm 0.00 in0.0 mm
07:49 AM 46.0°F7.8°C 36.5°F2.5°C 69% 2.0 mph W3.2 kmh W 6.9 mph11.1 kmh 29.80 in1009.1 mb 0.00 in0.0 mm 0.00 in0.0 mm 0.00 in0.0 mm
07:44 AM 45.9°F7.7°C 36.3°F2.4°C 69% 2.9 mph W4.7 kmh W 6.9 mph11.1 kmh 29.80 in1009.1 mb 0.00 in0.0 mm 0.00 in0.0 mm 0.00 in0.0 mm
07:39 AM 45.9°F7.7°C 36.7°F2.6°C 70% 2.0 mph W3.2 kmh W 4.0 mph6.4 kmh 29.80 in1009.1 mb 0.00 in0.0 mm 0.00 in0.0 mm 0.00 in0.0 mm
07:34 AM 45.9°F7.7°C 36.7°F2.6°C 70% 2.9 mph W4.7 kmh W 8.9 mph14.3 kmh 29.79 in1008.8 mb 0.00 in0.0 mm 0.00 in0.0 mm 0.00 in0.0 mm
07:29 AM 45.9°F7.7°C 36.7°F2.6°C 70% 2.9 mph W4.7 kmh W 8.1 mph13.0 kmh 29.79 in1008.8 mb 0.00 in0.0 mm 0.00 in0.0 mm 0.00 in0.0 mm
07:24 AM 45.9°F7.7°C 36.7°F2.6°C 70% 2.9 mph W4.7 kmh W 8.1 mph13.0 kmh 29.79 in1008.8 mb 0.00 in0.0 mm 0.00 in0.0 mm 0.00 in0.0 mm
07:19 AM 45.7°F7.6°C 36.5°F2.5°C 70% 2.9 mph NW4.7 kmh NW 8.1 mph13.0 kmh 29.79 in1008.8 mb 0.00 in0.0 mm 0.00 in0.0 mm 0.00 in0.0 mm
07:14 AM 45.7°F7.6°C 36.5°F2.5°C 70% 2.9 mph NW4.7 kmh NW 8.1 mph13.0 kmh 29.79 in1008.8 mb 0.00 in0.0 mm 0.00 in0.0 mm 0.00 in0.0 mm
07:09 AM 45.7°F7.6°C 36.5°F2.5°C 70% 2.0 mph WNW3.2 kmh WNW 8.1 mph13.0 kmh 29.79 in1008.8 mb 0.00 in0.0 mm 0.00 in0.0 mm 0.00 in0.0 mm
07:04 AM 45.7°F7.6°C 36.5°F2.5°C 70% 2.0 mph WNW3.2 kmh WNW 6.0 mph9.7 kmh 29.79 in1008.8 mb 0.00 in0.0 mm 0.00 in0.0 mm 0.00 in0.0 mm
06:59 AM 45.7°F7.6°C 36.5°F2.5°C 70% 2.9 mph NW4.7 kmh NW 6.9 mph11.1 kmh 29.79 in1008.8 mb 0.00 in0.0 mm 0.00 in0.0 mm 0.00 in0.0 mm
06:54 AM 45.7°F7.6°C 36.5°F2.5°C 70% 2.9 mph NW4.7 kmh NW 6.9 mph11.1 kmh 29.79 in1008.8 mb 0.00 in0.0 mm 0.00 in0.0 mm 0.00 in0.0 mm
06:49 AM 45.7°F7.6°C 36.5°F2.5°C 70% 4.0 mph NW6.4 kmh NW 8.9 mph14.3 kmh 29.79 in1008.8 mb 0.00 in0.0 mm 0.00 in0.0 mm 0.00 in0.0 mm
06:44 AM 45.7°F7.6°C 36.5°F2.5°C 70% 4.0 mph WNW6.4 kmh WNW 10.1 mph16.3 kmh 29.79 in1008.8 mb 0.00 in0.0 mm 0.00 in0.0 mm 0.00 in0.0 mm
06:39 AM 45.7°F7.6°C 36.5°F2.5°C 70% 4.0 mph W6.4 kmh W 10.1 mph16.3 kmh 29.79 in1008.8 mb 0.00 in0.0 mm 0.00 in0.0 mm 0.00 in0.0 mm
06:34 AM 45.7°F7.6°C 36.5°F2.5°C 70% 4.0 mph W6.4 kmh W 8.9 mph14.3 kmh 29.79 in1008.8 mb 0.00 in0.0 mm 0.00 in0.0 mm 0.00 in0.0 mm
06:29 AM 45.7°F7.6°C 36.5°F2.5°C 70% 4.0 mph WNW6.4 kmh WNW 8.9 mph14.3 kmh 29.79 in1008.8 mb 0.00 in0.0 mm 0.00 in0.0 mm 0.00 in0.0 mm
06:24 AM 45.7°F7.6°C 36.5°F2.5°C 70% 2.9 mph WNW4.7 kmh WNW 8.9 mph14.3 kmh 29.79 in1008.8 mb 0.00 in0.0 mm 0.00 in0.0 mm 0.00 in0.0 mm
06:19 AM 45.7°F7.6°C 36.5°F2.5°C 70% 4.0 mph W6.4 kmh W 9.0 mph14.5 kmh 29.79 in1008.8 mb 0.00 in0.0 mm 0.00 in0.0 mm 0.00 in0.0 mm
06:14 AM 45.5°F7.5°C 36.3°F2.4°C 70% 2.9 mph WNW4.7 kmh WNW 8.1 mph13.0 kmh 29.79 in1008.8 mb 0.00 in0.0 mm 0.00 in0.0 mm 0.00 in0.0 mm
06:09 AM 45.5°F7.5°C 36.3°F2.4°C 70% 2.0 mph W3.2 kmh W 8.1 mph13.0 kmh 29.79 in1008.8 mb 0.00 in0.0 mm 0.00 in0.0 mm 0.00 in0.0 mm
06:04 AM 45.5°F7.5°C 36.7°F2.6°C 71% 2.0 mph NW3.2 kmh NW 4.0 mph6.4 kmh 29.79 in1008.8 mb 0.00 in0.0 mm 0.00 in0.0 mm 0.00 in0.0 mm
05:59 AM 45.5°F7.5°C 36.7°F2.6°C 71% 2.0 mph W3.2 kmh W 6.0 mph9.7 kmh 29.79 in1008.8 mb 0.00 in0.0 mm 0.00 in0.0 mm 0.00 in0.0 mm
05:54 AM 45.5°F7.5°C 36.7°F2.6°C 71% 2.9 mph WNW4.7 kmh WNW 8.1 mph13.0 kmh 29.79 in1008.8 mb 0.00 in0.0 mm 0.00 in0.0 mm 0.00 in0.0 mm
05:49 AM 45.5°F7.5°C 36.7°F2.6°C 71% 4.0 mph WNW6.4 kmh WNW 6.9 mph11.1 kmh 29.79 in1008.8 mb 0.00 in0.0 mm 0.00 in0.0 mm 0.00 in0.0 mm
05:44 AM 45.5°F7.5°C 36.7°F2.6°C 71% 4.0 mph W6.4 kmh W 8.9 mph14.3 kmh 29.79 in1008.8 mb 0.00 in0.0 mm 0.00 in0.0 mm 0.00 in0.0 mm
05:39 AM 45.3°F7.4°C 36.5°F2.5°C 71% 2.9 mph NW4.7 kmh NW 11.0 mph17.7 kmh 29.79 in1008.8 mb 0.00 in0.0 mm 0.00 in0.0 mm 0.00 in0.0 mm
05:34 AM 45.3°F7.4°C 36.9°F2.7°C 72% 2.9 mph NW4.7 kmh NW 6.9 mph11.1 kmh 29.79 in1008.8 mb 0.00 in0.0 mm 0.00 in0.0 mm 0.00 in0.0 mm
05:29 AM 45.3°F7.4°C 36.9°F2.7°C 72% 2.0 mph W3.2 kmh W 6.9 mph11.1 kmh 29.79 in1008.8 mb 0.00 in0.0 mm 0.00 in0.0 mm 0.00 in0.0 mm
05:24 AM 45.3°F7.4°C 36.9°F2.7°C 72% 2.9 mph NW4.7 kmh NW 9.0 mph14.5 kmh 29.79 in1008.8 mb 0.00 in0.0 mm 0.00 in0.0 mm 0.00 in0.0 mm
05:19 AM 45.1°F7.3°C 36.7°F2.6°C 72% 2.0 mph WSW3.2 kmh WSW 8.1 mph13.0 kmh 29.79 in1008.8 mb 0.00 in0.0 mm 0.00 in0.0 mm 0.00 in0.0 mm
05:14 AM 45.1°F7.3°C 36.7°F2.6°C 72% 2.0 mph NW3.2 kmh NW 6.9 mph11.1 kmh 29.79 in1008.8 mb 0.00 in0.0 mm 0.00 in0.0 mm 0.00 in0.0 mm
05:09 AM 45.1°F7.3°C 37.0°F2.8°C 73% 2.0 mph NW3.2 kmh NW 6.9 mph11.1 kmh 29.79 in1008.8 mb 0.00 in0.0 mm 0.00 in0.0 mm 0.00 in0.0 mm
05:04 AM 45.0°F7.2°C 36.9°F2.7°C 73% 2.0 mph NW3.2 kmh NW 6.9 mph11.1 kmh 29.79 in1008.8 mb 0.00 in0.0 mm 0.00 in0.0 mm 0.00 in0.0 mm
04:58 AM 45.0°F7.2°C 36.9°F2.7°C 73% 2.0 mph WNW3.2 kmh WNW 4.9 mph7.9 kmh 29.79 in1008.8 mb 0.00 in0.0 mm 0.00 in0.0 mm 0.00 in0.0 mm
04:53 AM 45.0°F7.2°C 36.9°F2.7°C 73% 2.9 mph NW4.7 kmh NW 8.1 mph13.0 kmh 29.79 in1008.8 mb 0.00 in0.0 mm 0.00 in0.0 mm 0.00 in0.0 mm
04:48 AM 45.1°F7.3°C 37.0°F2.8°C 73% 2.0 mph NW3.2 kmh NW 6.0 mph9.7 kmh 29.80 in1009.1 mb 0.00 in0.0 mm 0.00 in0.0 mm 0.00 in0.0 mm
04:43 AM 45.0°F7.2°C 36.9°F2.7°C 73% 2.0 mph NW3.2 kmh NW 4.9 mph7.9 kmh 29.80 in1009.1 mb 0.00 in0.0 mm 0.00 in0.0 mm 0.00 in0.0 mm
04:38 AM 45.0°F7.2°C 36.9°F2.7°C 73% 2.9 mph NNW4.7 kmh NNW 6.9 mph11.1 kmh 29.80 in1009.1 mb 0.00 in0.0 mm 0.00 in0.0 mm 0.00 in0.0 mm
04:33 AM 44.8°F7.1°C 37.0°F2.8°C 74% 2.9 mph NW4.7 kmh NW 8.1 mph13.0 kmh 29.80 in1009.1 mb 0.00 in0.0 mm 0.00 in0.0 mm 0.00 in0.0 mm
04:28 AM 44.8°F7.1°C 37.0°F2.8°C 74% 2.0 mph WNW3.2 kmh WNW 6.9 mph11.1 kmh 29.80 in1009.1 mb 0.00 in0.0 mm 0.00 in0.0 mm 0.00 in0.0 mm
04:23 AM 44.8°F7.1°C 37.0°F2.8°C 74% 2.0 mph NW3.2 kmh NW 6.9 mph11.1 kmh 29.79 in1008.8 mb 0.00 in0.0 mm 0.00 in0.0 mm 0.00 in0.0 mm
04:18 AM 44.8°F7.1°C 36.7°F2.6°C 73% 2.0 mph WNW3.2 kmh WNW 7.0 mph11.3 kmh 29.80 in1009.1 mb 0.00 in0.0 mm 0.00 in0.0 mm 0.00 in0.0 mm
04:13 AM 45.0°F7.2°C 36.9°F2.7°C 73% 2.0 mph NNW3.2 kmh NNW 4.9 mph7.9 kmh 29.80 in1009.1 mb 0.00 in0.0 mm 0.00 in0.0 mm 0.00 in0.0 mm
04:08 AM 45.1°F7.3°C 37.0°F2.8°C 73% 2.9 mph 4.7 kmh 4.9 mph7.9 kmh 29.80 in1009.1 mb 0.00 in0.0 mm 0.00 in0.0 mm 0.00 in0.0 mm
04:03 AM 45.1°F7.3°C 37.0°F2.8°C 73% 2.9 mph NW4.7 kmh NW 9.0 mph14.5 kmh 29.80 in1009.1 mb 0.00 in0.0 mm 0.00 in0.0 mm 0.00 in0.0 mm
03:58 AM 45.1°F7.3°C 37.0°F2.8°C 73% 2.9 mph WNW4.7 kmh WNW 8.1 mph13.0 kmh 29.80 in1009.1 mb 0.00 in0.0 mm 0.00 in0.0 mm 0.00 in0.0 mm
03:53 AM 45.3°F7.4°C 37.2°F2.9°C 73% 2.9 mph NW4.7 kmh NW 10.1 mph16.3 kmh 29.80 in1009.1 mb 0.00 in0.0 mm 0.00 in0.0 mm 0.00 in0.0 mm
03:48 AM 45.3°F7.4°C 37.2°F2.9°C 73% 2.9 mph NW4.7 kmh NW 8.9 mph14.3 kmh 29.80 in1009.1 mb 0.00 in0.0 mm 0.00 in0.0 mm 0.00 in0.0 mm
03:43 AM 45.3°F7.4°C 37.2°F2.9°C 73% 4.0 mph NW6.4 kmh NW 10.1 mph16.3 kmh 29.80 in1009.1 mb 0.00 in0.0 mm 0.00 in0.0 mm 0.00 in0.0 mm
03:38 AM 45.3°F7.4°C 37.2°F2.9°C 73% 4.0 mph NW6.4 kmh NW 8.9 mph14.3 kmh 29.81 in1009.5 mb 0.00 in0.0 mm 0.00 in0.0 mm 0.00 in0.0 mm
03:33 AM 45.3°F7.4°C 37.2°F2.9°C 73% 4.0 mph N6.4 kmh N 8.9 mph14.3 kmh 29.81 in1009.5 mb 0.00 in0.0 mm 0.00 in0.0 mm 0.00 in0.0 mm
03:28 AM 45.3°F7.4°C 36.9°F2.7°C 72% 4.0 mph NNW6.4 kmh NNW 8.9 mph14.3 kmh 29.81 in1009.5 mb 0.00 in0.0 mm 0.00 in0.0 mm 0.00 in0.0 mm
03:23 AM 45.3°F7.4°C 37.2°F2.9°C 73% 4.0 mph NW6.4 kmh NW 10.1 mph16.3 kmh 29.81 in1009.5 mb 0.00 in0.0 mm 0.00 in0.0 mm 0.00 in0.0 mm
03:18 AM 45.5°F7.5°C 37.4°F3.0°C 73% 4.0 mph WNW6.4 kmh WNW 8.1 mph13.0 kmh 29.81 in1009.5 mb 0.00 in0.0 mm 0.00 in0.0 mm 0.00 in0.0 mm
03:13 AM 45.5°F7.5°C 37.4°F3.0°C 73% 4.9 mph WNW7.9 kmh WNW 13.0 mph20.9 kmh 29.81 in1009.5 mb 0.00 in0.0 mm 0.00 in0.0 mm 0.00 in0.0 mm
03:08 AM 45.5°F7.5°C 37.0°F2.8°C 72% 4.9 mph NW7.9 kmh NW 10.1 mph16.3 kmh 29.81 in1009.5 mb 0.00 in0.0 mm 0.00 in0.0 mm 0.00 in0.0 mm
03:03 AM 45.7°F7.6°C 37.2°F2.9°C 72% 4.9 mph WNW7.9 kmh WNW 12.1 mph19.5 kmh 29.81 in1009.5 mb 0.00 in0.0 mm 0.00 in0.0 mm 0.00 in0.0 mm
02:58 AM 45.7°F7.6°C 37.2°F2.9°C 72% 6.0 mph WNW9.7 kmh WNW 12.1 mph19.5 kmh 29.81 in1009.5 mb 0.00 in0.0 mm 0.00 in0.0 mm 0.00 in0.0 mm
02:53 AM 45.7°F7.6°C 37.2°F2.9°C 72% 6.0 mph W9.7 kmh W 11.0 mph17.7 kmh 29.81 in1009.5 mb 0.00 in0.0 mm 0.00 in0.0 mm 0.00 in0.0 mm
02:48 AM 45.7°F7.6°C 37.2°F2.9°C 72% 4.9 mph WNW7.9 kmh WNW 11.0 mph17.7 kmh 29.81 in1009.5 mb 0.00 in0.0 mm 0.00 in0.0 mm 0.00 in0.0 mm
02:43 AM 45.7°F7.6°C 37.2°F2.9°C 72% 4.9 mph WNW7.9 kmh WNW 11.0 mph17.7 kmh 29.81 in1009.5 mb 0.00 in0.0 mm 0.00 in0.0 mm 0.00 in0.0 mm
02:38 AM 45.7°F7.6°C 37.2°F2.9°C 72% 6.0 mph WNW9.7 kmh WNW 12.1 mph19.5 kmh 29.81 in1009.5 mb 0.00 in0.0 mm 0.00 in0.0 mm 0.00 in0.0 mm
02:33 AM 45.7°F7.6°C 37.6°F3.1°C 73% 6.0 mph WNW9.7 kmh WNW 11.0 mph17.7 kmh 29.82 in1009.8 mb 0.00 in0.0 mm 0.00 in0.0 mm 0.00 in0.0 mm
02:28 AM 45.7°F7.6°C 37.6°F3.1°C 73% 6.0 mph NW9.7 kmh NW 10.1 mph16.3 kmh 29.82 in1009.8 mb 0.00 in0.0 mm 0.00 in0.0 mm 0.00 in0.0 mm
02:23 AM 45.7°F7.6°C 37.2°F2.9°C 72% 6.9 mph W11.1 kmh W 12.1 mph19.5 kmh 29.82 in1009.8 mb 0.00 in0.0 mm 0.00 in0.0 mm 0.00 in0.0 mm
02:18 AM 45.7°F7.6°C 37.6°F3.1°C 73% 8.1 mph WNW13.0 kmh WNW 11.0 mph17.7 kmh 29.82 in1009.8 mb 0.00 in0.0 mm 0.00 in0.0 mm 0.00 in0.0 mm
02:13 AM 45.7°F7.6°C 37.6°F3.1°C 73% 8.1 mph W13.0 kmh W 15.0 mph24.1 kmh 29.82 in1009.8 mb 0.00 in0.0 mm 0.00 in0.0 mm 0.00 in0.0 mm
02:08 AM 45.7°F7.6°C 37.6°F3.1°C 73% 8.1 mph W13.0 kmh W 14.1 mph22.7 kmh 29.83 in1010.2 mb 0.00 in0.0 mm 0.00 in0.0 mm 0.00 in0.0 mm
02:03 AM 45.5°F7.5°C 37.4°F3.0°C 73% 8.1 mph WNW13.0 kmh WNW 13.0 mph20.9 kmh 29.83 in1010.2 mb 0.00 in0.0 mm 0.00 in0.0 mm 0.00 in0.0 mm
01:58 AM 45.3°F7.4°C 37.2°F2.9°C 73% 6.9 mph W11.1 kmh W 14.1 mph22.7 kmh 29.83 in1010.2 mb 0.00 in0.0 mm 0.00 in0.0 mm 0.00 in0.0 mm
01:53 AM 45.3°F7.4°C 37.2°F2.9°C 73% 6.0 mph WNW9.7 kmh WNW 12.1 mph19.5 kmh 29.83 in1010.2 mb 0.00 in0.0 mm 0.00 in0.0 mm 0.00 in0.0 mm
01:48 AM 45.3°F7.4°C 37.2°F2.9°C 73% 6.0 mph W9.7 kmh W 11.0 mph17.7 kmh 29.83 in1010.2 mb 0.00 in0.0 mm 0.00 in0.0 mm 0.00 in0.0 mm
01:43 AM 45.3°F7.4°C 37.2°F2.9°C 73% 6.0 mph NW9.7 kmh NW 11.0 mph17.7 kmh 29.83 in1010.2 mb 0.00 in0.0 mm 0.00 in0.0 mm 0.00 in0.0 mm
01:38 AM 45.3°F7.4°C 37.2°F2.9°C 73% 6.0 mph W9.7 kmh W 10.1 mph16.3 kmh 29.83 in1010.2 mb 0.00 in0.0 mm 0.00 in0.0 mm 0.00 in0.0 mm
01:33 AM 45.3°F7.4°C 37.2°F2.9°C 73% 6.0 mph WNW9.7 kmh WNW 12.1 mph19.5 kmh 29.83 in1010.2 mb 0.00 in0.0 mm 0.00 in0.0 mm 0.00 in0.0 mm
01:28 AM 45.5°F7.5°C 37.0°F2.8°C 72% 6.0 mph W9.7 kmh W 12.1 mph19.5 kmh 29.83 in1010.2 mb 0.00 in0.0 mm 0.00 in0.0 mm 0.00 in0.0 mm
01:23 AM 45.7°F7.6°C 37.2°F2.9°C 72% 6.0 mph NW9.7 kmh NW 12.1 mph19.5 kmh 29.83 in1010.2 mb 0.00 in0.0 mm 0.00 in0.0 mm 0.00 in0.0 mm
01:18 AM 45.7°F7.6°C 37.2°F2.9°C 72% 6.0 mph WSW9.7 kmh WSW 10.1 mph16.3 kmh 29.83 in1010.2 mb 0.00 in0.0 mm 0.00 in0.0 mm 0.00 in0.0 mm
01:13 AM 45.9°F7.7°C 37.4°F3.0°C 72% 6.9 mph W11.1 kmh W 11.0 mph17.7 kmh 29.83 in1010.2 mb 0.00 in0.0 mm 0.00 in0.0 mm 0.00 in0.0 mm
01:08 AM 46.0°F7.8°C 37.6°F3.1°C 72% 6.9 mph WNW11.1 kmh WNW 13.0 mph20.9 kmh 29.83 in1010.2 mb 0.00 in0.0 mm 0.00 in0.0 mm 0.00 in0.0 mm
01:03 AM 46.0°F7.8°C 37.2°F2.9°C 71% 6.0 mph W9.7 kmh W 12.1 mph19.5 kmh 29.83 in1010.2 mb 0.00 in0.0 mm 0.00 in0.0 mm 0.00 in0.0 mm
12:58 AM 46.0°F7.8°C 37.2°F2.9°C 71% 4.9 mph W7.9 kmh W 11.0 mph17.7 kmh 29.83 in1010.2 mb 0.00 in0.0 mm 0.00 in0.0 mm 0.00 in0.0 mm
12:53 AM 46.2°F7.9°C 37.4°F3.0°C 71% 4.9 mph W7.9 kmh W 12.1 mph19.5 kmh 29.83 in1010.2 mb 0.00 in0.0 mm 0.00 in0.0 mm 0.00 in0.0 mm
12:48 AM 46.2°F7.9°C 37.4°F3.0°C 71% 4.9 mph NW7.9 kmh NW 8.9 mph14.3 kmh 29.83 in1010.2 mb 0.00 in0.0 mm 0.00 in0.0 mm 0.00 in0.0 mm
12:43 AM 46.4°F8.0°C 37.6°F3.1°C 71% 4.9 mph WNW7.9 kmh WNW 11.0 mph17.7 kmh 29.84 in1010.5 mb 0.00 in0.0 mm 0.00 in0.0 mm 0.00 in0.0 mm
12:38 AM 46.4°F8.0°C 37.6°F3.1°C 71% 6.0 mph W9.7 kmh W 12.1 mph19.5 kmh 29.84 in1010.5 mb 0.00 in0.0 mm 0.00 in0.0 mm 0.00 in0.0 mm
12:33 AM 46.2°F7.9°C 37.4°F3.0°C 71% 6.9 mph WNW11.1 kmh WNW 13.0 mph20.9 kmh 29.84 in1010.5 mb 0.00 in0.0 mm 0.00 in0.0 mm 0.00 in0.0 mm
12:28 AM 46.2°F7.9°C 37.0°F2.8°C 70% 6.0 mph NW9.7 kmh NW 11.0 mph17.7 kmh 29.84 in1010.5 mb 0.00 in0.0 mm 0.00 in0.0 mm 0.00 in0.0 mm
12:23 AM 46.2°F7.9°C 37.0°F2.8°C 70% 6.0 mph WNW9.7 kmh WNW 10.1 mph16.3 kmh 29.84 in1010.5 mb 0.00 in0.0 mm 0.00 in0.0 mm 0.00 in0.0 mm
12:18 AM 46.2°F7.9°C 37.0°F2.8°C 70% 6.0 mph W9.7 kmh W 11.0 mph17.7 kmh 29.84 in1010.5 mb 0.00 in0.0 mm 0.00 in0.0 mm 0.00 in0.0 mm
12:13 AM 46.4°F8.0°C 37.2°F2.9°C 70% 6.0 mph W9.7 kmh W 13.0 mph20.9 kmh 29.84 in1010.5 mb 0.00 in0.0 mm 0.00 in0.0 mm 0.00 in0.0 mm
12:08 AM 46.4°F8.0°C 37.2°F2.9°C 70% 4.9 mph W7.9 kmh W 12.1 mph19.5 kmh 29.84 in1010.5 mb 0.00 in0.0 mm 0.00 in0.0 mm 0.00 in0.0 mm
12:03 AM 46.6°F8.1°C 37.4°F3.0°C 70% 4.0 mph W6.4 kmh W 10.1 mph16.3 kmh 29.84 in1010.5 mb 0.00 in0.0 mm 0.00 in0.0 mm 0.00 in0.0 mm